Jolyn — PJWG — position and weather

sailwx.info

Track history (hours):
 
Tides and Currents Weather Stations Pressure Air Temp Water Temp Dewpoint Dewpoint Depression Visibility Wind Speed Wind Dir Waves Ship Positions

Jolyn

Last reported at 2015-May-28 06:18 UTC. Time now 2015-May-28 14:09 UTC.
Position N 45°23' W 004°08'.

Length 89 m; draft 5.4 m.

Type: Cargo ship. MMSI: 306813000.

Date/timePositionNaut miles runAvg speedWind from/ knotsBaromVisibWave heightAir tempDewpointWater temp
2015-May-28 06:18N 45°23' W 004°08'7 9.9
2015-May-28 05:33N 45°30' W 004°12'4410.1
2015-May-28 01:13N 46°11' W 004°34'910.0
2015-May-28 00:20N 46°19' W 004°38'910.0
2015-May-27 23:25N 46°28' W 004°43'1010.3
2015-May-27 22:24N 46°37' W 004°49'910.3
2015-May-27 21:32N 46°46' W 004°53'1110.1
2015-May-27 20:29N 46°56' W 004°59'1110.0
2015-May-27 19:23N 47°06' W 005°04'8 9.9
2015-May-27 18:33N 47°14' W 005°09'286 8.1
2015-May-26 07:26N 50°33' E 000°03'1010.8
2015-May-26 06:33N 50°35' E 000°17'1010.3
2015-May-26 05:33N 50°38' E 000°33'10 9.7
2015-May-26 04:33N 50°44' E 000°45'9 9.3
2015-May-26 03:33N 50°49' E 000°58'10 9.4
2015-May-26 02:29N 50°55' E 001°10'1010.3
2015-May-26 01:33N 51°01' E 001°22'1211.9
2015-May-26 00:33N 51°09' E 001°36'1211.6
2015-May-25 23:33N 51°18' E 001°48'1110.8
2015-May-25 22:34N 51°27' E 001°57'10 9.8
2015-May-25 21:33N 51°35' E 002°07'9 9.3
2015-May-25 20:33N 51°42' E 002°16'8310.1
2015-May-25 12:21N 52°46' E 003°43'910.3
2015-May-25 11:26N 52°53' E 003°53'9 9.7
2015-May-25 10:32N 52°60' E 004°03'37 9.3
2015-May-25 06:30N 53°30' E 004°40'1011.0
2015-May-25 05:33N 53°33' E 004°56'1111.0
2015-May-25 04:33N 53°37' E 005°14'1110.5
2015-May-25 03:33N 53°40' E 005°30'10 9.9
2015-May-25 02:33N 53°43' E 005°46'9 9.0
2015-May-25 01:32N 53°46' E 006°01'46 9.3
2015-May-24 20:33N 53°58' E 007°17'1110.9
2015-May-24 19:33N 54°01' E 007°35'1111.1
2015-May-24 18:33N 54°02' E 007°54'1111.1
2015-May-24 17:33N 54°01' E 008°13'1110.9
2015-May-24 16:33N 53°58' E 008°30'8 8.1
2015-May-24 15:33N 53°54' E 008°42'7 6.7
2015-May-24 14:33N 53°51' E 008°52'7 7.3
2015-May-24 13:33N 53°52' E 009°04'3 3.2
2015-May-24 12:33N 53°54' E 009°09'1 1.2
2015-May-24 11:33N 53°54' E 009°10'17 7.8
2015-May-24 09:24N 54°09' E 009°23'7 8.5
2015-May-24 08:33N 54°12' E 009°34'8 7.9
2015-May-24 07:33N 54°18' E 009°43'7 7.1
2015-May-24 06:33N 54°21' E 009°54'5 4.9
2015-May-24 05:33N 54°22' E 010°02'4 3.9
2015-May-24 04:33N 54°22' E 010°09'2 1.6
2015-May-24 03:33N 54°23' E 010°11'10 9.8
2015-May-24 02:33N 54°31' E 010°21'1110.6
2015-May-24 01:33N 54°35' E 010°38'1210.9
2015-May-24 00:29N 54°36' E 010°58'1010.6
2015-May-23 23:33N 54°35' E 011°15'1110.6
2015-May-23 22:33N 54°30' E 011°32'1110.7
2015-May-23 21:33N 54°26' E 011°49'1110.7
2015-May-23 20:33N 54°27' E 012°07'41 9.7
2015-May-23 16:18N 54°46' E 013°10'2410.8
2015-May-23 14:07N 54°43' E 013°51'12610.7
2015-May-23 02:20N 54°55' E 017°29'910.8
2015-May-23 01:31N 54°55' E 017°44'1110.9
2015-May-23 00:33N 54°56' E 018°02'1110.9
2015-May-22 23:33N 54°56' E 018°21'1010.5
2015-May-22 22:33N 54°54' E 018°39'1111.4
2015-May-22 21:33N 54°47' E 018°55'1010.2
2015-May-22 20:33N 54°37' E 018°55'1111.1
2015-May-22 19:33N 54°28' E 018°43'5 4.7
2015-May-22 18:33N 54°24' E 018°40'0 0.0
2015-May-22 17:32N 54°24' E 018°40'0 0.0
2015-May-22 16:32N 54°24' E 018°40'0 0.0
2015-May-22 15:32N 54°24' E 018°40'0 0.0
2015-May-22 14:32N 54°24' E 018°40'0 0.0
2015-May-22 13:32N 54°24' E 018°40'0 0.0
2015-May-22 12:32N 54°24' E 018°40'0 0.0
2015-May-22 11:32N 54°24' E 018°40'0 0.0
2015-May-22 10:32N 54°24' E 018°40'0 0.0
2015-May-22 09:32N 54°24' E 018°40'0 0.0
2015-May-22 08:29N 54°24' E 018°40'0 0.0
2015-May-22 07:32N 54°24' E 018°40'0 0.0
2015-May-22 06:32N 54°24' E 018°40'0 0.0
2015-May-22 05:32N 54°24' E 018°40'0 0.0
2015-May-22 04:32N 54°24' E 018°40'0 0.0
2015-May-22 03:32N 54°24' E 018°40'0 0.0
2015-May-22 02:32N 54°24' E 018°40'0 0.0
2015-May-22 01:32N 54°24' E 018°40'0 0.0
2015-May-22 00:32N 54°24' E 018°40'0 0.0
2015-May-21 23:29N 54°24' E 018°40'0 0.0
2015-May-21 22:32N 54°24' E 018°40'0 0.0
2015-May-21 21:32N 54°24' E 018°40'0 0.0
2015-May-21 20:32N 54°24' E 018°40'0 0.0
2015-May-21 19:29N 54°24' E 018°40'0 0.0
2015-May-21 18:32N 54°24' E 018°40'0 0.0
2015-May-21 17:32N 54°24' E 018°40'0 0.0
2015-May-21 16:32N 54°24' E 018°40'0 0.0
2015-May-21 15:32N 54°24' E 018°40'0 0.0
2015-May-21 14:29N 54°24' E 018°40'0 0.0
2015-May-21 13:32N 54°24' E 018°40'0 0.0
2015-May-21 12:32N 54°24' E 018°40'0 0.0
2015-May-21 11:32N 54°24' E 018°40'0 0.0
2015-May-21 10:32N 54°24' E 018°40'0 0.0
2015-May-21 09:32N 54°24' E 018°40'0 0.0
2015-May-21 08:32N 54°24' E 018°40'0 0.0
2015-May-21 07:32N 54°24' E 018°40'0 0.0
2015-May-21 06:32N 54°24' E 018°40'0 0.0
2015-May-21 05:32N 54°24' E 018°40'1 0.7
2015-May-21 04:33N 54°24' E 018°40'7 6.7
2015-May-21 03:33N 54°30' E 018°45'9 9.5
2015-May-21 02:33N 54°38' E 018°55'1110.6
2015-May-21 01:33N 54°48' E 018°60'1110.6
2015-May-21 00:33N 54°59' E 019°04'1010.4
2015-May-20 23:33N 55°09' E 019°08'1110.6
2015-May-20 22:29N 55°20' E 019°13'25711.2
2015-May-19 23:33N 59°29' E 021°13'1111.3
2015-May-19 22:33N 59°40' E 021°19'1110.7
2015-May-19 21:33N 59°50' E 021°23'1211.9
2015-May-19 20:33N 59°58' E 021°41'  
Track history (hours):
 
Tides and Currents Weather Stations Pressure Air Temp Water Temp Dewpoint Dewpoint Depression Visibility Wind Speed Wind Dir Waves Ship Positions

Jolyn

Last reported at 2015-May-28 06:18 UTC. Time now 2015-May-28 14:09 UTC.
Position N 45°23' W 004°08'.

Length 89 m; draft 5.4 m.

Type: Cargo ship. MMSI: 306813000.

Date/timePositionNaut miles runAvg speedWind from/ knotsBaromVisibWave heightAir tempDewpointWater temp
2015-May-28 06:18N 45°23' W 004°08'7 9.9
2015-May-28 05:33N 45°30' W 004°12'4410.1
2015-May-28 01:13N 46°11' W 004°34'910.0
2015-May-28 00:20N 46°19' W 004°38'910.0
2015-May-27 23:25N 46°28' W 004°43'1010.3
2015-May-27 22:24N 46°37' W 004°49'910.3
2015-May-27 21:32N 46°46' W 004°53'1110.1
2015-May-27 20:29N 46°56' W 004°59'1110.0
2015-May-27 19:23N 47°06' W 005°04'8 9.9
2015-May-27 18:33N 47°14' W 005°09'286 8.1
2015-May-26 07:26N 50°33' E 000°03'1010.8
2015-May-26 06:33N 50°35' E 000°17'1010.3
2015-May-26 05:33N 50°38' E 000°33'10 9.7
2015-May-26 04:33N 50°44' E 000°45'9 9.3
2015-May-26 03:33N 50°49' E 000°58'10 9.4
2015-May-26 02:29N 50°55' E 001°10'1010.3
2015-May-26 01:33N 51°01' E 001°22'1211.9
2015-May-26 00:33N 51°09' E 001°36'1211.6
2015-May-25 23:33N 51°18' E 001°48'1110.8
2015-May-25 22:34N 51°27' E 001°57'10 9.8
2015-May-25 21:33N 51°35' E 002°07'9 9.3
2015-May-25 20:33N 51°42' E 002°16'8310.1
2015-May-25 12:21N 52°46' E 003°43'910.3
2015-May-25 11:26N 52°53' E 003°53'9 9.7
2015-May-25 10:32N 52°60' E 004°03'37 9.3
2015-May-25 06:30N 53°30' E 004°40'1011.0
2015-May-25 05:33N 53°33' E 004°56'1111.0
2015-May-25 04:33N 53°37' E 005°14'1110.5
2015-May-25 03:33N 53°40' E 005°30'10 9.9
2015-May-25 02:33N 53°43' E 005°46'9 9.0
2015-May-25 01:32N 53°46' E 006°01'46 9.3
2015-May-24 20:33N 53°58' E 007°17'1110.9
2015-May-24 19:33N 54°01' E 007°35'1111.1
2015-May-24 18:33N 54°02' E 007°54'1111.1
2015-May-24 17:33N 54°01' E 008°13'1110.9
2015-May-24 16:33N 53°58' E 008°30'8 8.1
2015-May-24 15:33N 53°54' E 008°42'7 6.7
2015-May-24 14:33N 53°51' E 008°52'7 7.3
2015-May-24 13:33N 53°52' E 009°04'3 3.2
2015-May-24 12:33N 53°54' E 009°09'1 1.2
2015-May-24 11:33N 53°54' E 009°10'17 7.8
2015-May-24 09:24N 54°09' E 009°23'7 8.5
2015-May-24 08:33N 54°12' E 009°34'8 7.9
2015-May-24 07:33N 54°18' E 009°43'7 7.1
2015-May-24 06:33N 54°21' E 009°54'5 4.9
2015-May-24 05:33N 54°22' E 010°02'4 3.9
2015-May-24 04:33N 54°22' E 010°09'2 1.6
2015-May-24 03:33N 54°23' E 010°11'10 9.8
2015-May-24 02:33N 54°31' E 010°21'1110.6
2015-May-24 01:33N 54°35' E 010°38'1210.9
2015-May-24 00:29N 54°36' E 010°58'1010.6
2015-May-23 23:33N 54°35' E 011°15'1110.6
2015-May-23 22:33N 54°30' E 011°32'1110.7
2015-May-23 21:33N 54°26' E 011°49'1110.7
2015-May-23 20:33N 54°27' E 012°07'41 9.7
2015-May-23 16:18N 54°46' E 013°10'2410.8
2015-May-23 14:07N 54°43' E 013°51'12610.7
2015-May-23 02:20N 54°55' E 017°29'910.8
2015-May-23 01:31N 54°55' E 017°44'1110.9
2015-May-23 00:33N 54°56' E 018°02'1110.9
2015-May-22 23:33N 54°56' E 018°21'1010.5
2015-May-22 22:33N 54°54' E 018°39'1111.4
2015-May-22 21:33N 54°47' E 018°55'1010.2
2015-May-22 20:33N 54°37' E 018°55'1111.1
2015-May-22 19:33N 54°28' E 018°43'5 4.7
2015-May-22 18:33N 54°24' E 018°40'0 0.0
2015-May-22 17:32N 54°24' E 018°40'0 0.0
2015-May-22 16:32N 54°24' E 018°40'0 0.0
2015-May-22 15:32N 54°24' E 018°40'0 0.0
2015-May-22 14:32N 54°24' E 018°40'0 0.0
2015-May-22 13:32N 54°24' E 018°40'0 0.0
2015-May-22 12:32N 54°24' E 018°40'0 0.0
2015-May-22 11:32N 54°24' E 018°40'0 0.0
2015-May-22 10:32N 54°24' E 018°40'0 0.0
2015-May-22 09:32N 54°24' E 018°40'0 0.0
2015-May-22 08:29N 54°24' E 018°40'0 0.0
2015-May-22 07:32N 54°24' E 018°40'0 0.0
2015-May-22 06:32N 54°24' E 018°40'0 0.0
2015-May-22 05:32N 54°24' E 018°40'0 0.0
2015-May-22 04:32N 54°24' E 018°40'0 0.0
2015-May-22 03:32N 54°24' E 018°40'0 0.0
2015-May-22 02:32N 54°24' E 018°40'0 0.0
2015-May-22 01:32N 54°24' E 018°40'0 0.0
2015-May-22 00:32N 54°24' E 018°40'0 0.0
2015-May-21 23:29N 54°24' E 018°40'0 0.0
2015-May-21 22:32N 54°24' E 018°40'0 0.0
2015-May-21 21:32N 54°24' E 018°40'0 0.0
2015-May-21 20:32N 54°24' E 018°40'0 0.0
2015-May-21 19:29N 54°24' E 018°40'0 0.0
2015-May-21 18:32N 54°24' E 018°40'0 0.0
2015-May-21 17:32N 54°24' E 018°40'0 0.0
2015-May-21 16:32N 54°24' E 018°40'0 0.0
2015-May-21 15:32N 54°24' E 018°40'0 0.0
2015-May-21 14:29N 54°24' E 018°40'0 0.0
2015-May-21 13:32N 54°24' E 018°40'0 0.0
2015-May-21 12:32N 54°24' E 018°40'0 0.0
2015-May-21 11:32N 54°24' E 018°40'0 0.0
2015-May-21 10:32N 54°24' E 018°40'0 0.0
2015-May-21 09:32N 54°24' E 018°40'0 0.0
2015-May-21 08:32N 54°24' E 018°40'0 0.0
2015-May-21 07:32N 54°24' E 018°40'0 0.0
2015-May-21 06:32N 54°24' E 018°40'0 0.0
2015-May-21 05:32N 54°24' E 018°40'1 0.7
2015-May-21 04:33N 54°24' E 018°40'7 6.7
2015-May-21 03:33N 54°30' E 018°45'9 9.5
2015-May-21 02:33N 54°38' E 018°55'1110.6
2015-May-21 01:33N 54°48' E 018°60'1110.6
2015-May-21 00:33N 54°59' E 019°04'1010.4
2015-May-20 23:33N 55°09' E 019°08'1110.6
2015-May-20 22:29N 55°20' E 019°13'25711.2
2015-May-19 23:33N 59°29' E 021°13'1111.3
2015-May-19 22:33N 59°40' E 021°19'1110.7
2015-May-19 21:33N 59°50' E 021°23'1211.9
2015-May-19 20:33N 59°58' E 021°41'  

Dump ship's entire track history